createdAt,value
2023-11-23T00:00:57.626Z,17.95
2023-11-23T00:02:00.894Z,17.20
2023-11-23T00:03:03.083Z,16.98
2023-11-23T00:04:06.540Z,17.98
2023-11-23T00:05:10.130Z,22.17
2023-11-23T00:06:13.357Z,18.08
2023-11-23T00:07:16.918Z,18.13
2023-11-23T00:08:20.960Z,16.50
2023-11-23T00:09:23.086Z,22.30
2023-11-23T00:10:26.202Z,17.77
2023-11-23T00:11:29.205Z,17.20
2023-11-23T00:12:31.431Z,17.38
2023-11-23T00:13:34.570Z,18.20
2023-11-23T00:14:37.273Z,18.10
2023-11-23T00:15:40.343Z,23.02
2023-11-23T00:16:44.707Z,18.13
2023-11-23T00:17:47.008Z,17.60
2023-11-23T00:18:50.231Z,18.42
2023-11-23T00:19:52.406Z,19.42
2023-11-23T00:20:56.465Z,22.50
2023-11-23T00:21:58.707Z,19.55
2023-11-23T00:23:03.135Z,20.13
2023-11-23T00:24:06.503Z,20.23
2023-11-23T00:25:13.422Z,18.63
2023-11-23T00:26:15.683Z,24.80
2023-11-23T00:27:29.720Z,18.38
2023-11-23T00:28:32.104Z,19.60
2023-11-23T00:29:35.414Z,19.73
2023-11-23T00:30:37.520Z,18.75
2023-11-23T00:31:40.682Z,25.48
2023-11-23T00:32:42.924Z,23.88
2023-11-23T00:33:45.374Z,21.15
2023-11-23T00:34:48.801Z,20.20
2023-11-23T00:35:51.176Z,19.60
2023-11-23T00:36:54.372Z,19.25
2023-11-23T00:37:56.594Z,23.85
2023-11-23T00:39:01.008Z,20.65
2023-11-23T00:40:04.177Z,20.05
2023-11-23T00:41:09.060Z,20.75
2023-11-23T00:42:11.273Z,26.45
2023-11-23T00:43:13.606Z,24.67
2023-11-23T00:44:16.897Z,18.85
2023-11-23T00:45:19.145Z,20.63
2023-11-23T00:46:22.278Z,19.38
2023-11-23T00:47:24.425Z,20.92
2023-11-23T00:48:28.464Z,18.70
2023-11-23T00:49:31.124Z,20.23
2023-11-23T00:50:34.314Z,24.38
2023-11-23T00:51:37.902Z,25.33
2023-11-23T00:52:41.062Z,25.48
2023-11-23T00:53:43.185Z,19.75
2023-11-23T00:54:48.600Z,18.83
2023-11-23T00:55:50.880Z,18.50
2023-11-23T00:56:54.022Z,19.40
2023-11-23T00:57:56.152Z,18.35
2023-11-23T00:58:59.336Z,18.55
2023-11-23T01:00:01.591Z,24.40
2023-11-23T01:01:05.343Z,18.13
2023-11-23T01:02:07.626Z,19.45
2023-11-23T01:03:11.073Z,18.92
2023-11-23T01:04:14.629Z,23.98
2023-11-23T01:05:20.050Z,20.55
2023-11-23T01:06:22.220Z,19.88
2023-11-23T01:07:25.284Z,18.70
2023-11-23T01:08:27.349Z,18.73
2023-11-23T01:09:30.454Z,19.75
2023-11-23T01:10:33.957Z,22.95
2023-11-23T01:11:37.164Z,24.08
2023-11-23T01:12:39.337Z,18.92
2023-11-23T01:13:42.937Z,18.75
2023-11-23T01:14:46.140Z,19.58
2023-11-23T01:15:48.347Z,20.08
2023-11-23T01:16:51.554Z,18.95
2023-11-23T01:17:53.882Z,24.88
2023-11-23T01:18:57.091Z,18.45
2023-11-23T01:19:59.272Z,20.33
2023-11-23T01:21:02.532Z,21.50
2023-11-23T01:22:04.995Z,21.50
2023-11-23T01:23:08.119Z,23.38
2023-11-23T01:24:13.078Z,20.00
2023-11-23T01:25:16.462Z,19.92
2023-11-23T01:26:19.950Z,25.92
2023-11-23T01:27:23.130Z,20.08
2023-11-23T01:28:25.175Z,18.17
2023-11-23T01:29:28.321Z,19.20
2023-11-23T01:30:30.661Z,23.90
2023-11-23T01:31:33.933Z,25.10
2023-11-23T01:32:36.198Z,20.52
2023-11-23T01:33:39.554Z,18.52
2023-11-23T01:34:41.675Z,18.40
2023-11-23T01:35:43.893Z,19.27
2023-11-23T01:36:47.019Z,19.13
2023-11-23T01:37:49.134Z,24.05
2023-11-23T01:38:52.224Z,22.73
2023-11-23T01:39:54.475Z,17.73
2023-11-23T01:40:57.641Z,18.52
2023-11-23T01:42:01.113Z,19.92
2023-11-23T01:43:04.579Z,24.25
2023-11-23T01:44:06.793Z,17.77
2023-11-23T01:45:10.806Z,17.85
2023-11-23T01:46:12.960Z,24.35
2023-11-23T01:47:16.369Z,24.38
2023-11-23T01:48:19.292Z,20.05
2023-11-23T01:49:23.801Z,18.02
2023-11-23T01:50:26.653Z,18.25
2023-11-23T01:51:30.008Z,18.08
2023-11-23T01:52:32.213Z,19.25
2023-11-23T01:53:35.397Z,23.33
2023-11-23T01:54:37.635Z,23.23
2023-11-23T01:55:40.775Z,19.25
2023-11-23T01:56:43.638Z,17.52
2023-11-23T01:57:49.135Z,20.17
2023-11-23T01:58:51.438Z,18.05
2023-11-23T01:59:54.790Z,22.60
2023-11-23T02:00:56.993Z,17.30
2023-11-23T02:02:00.457Z,17.33
2023-11-23T02:03:02.770Z,19.10
2023-11-23T02:04:07.106Z,21.27
2023-11-23T02:05:10.819Z,23.52
2023-11-23T02:06:13.996Z,18.92
2023-11-23T02:07:16.314Z,18.63
2023-11-23T02:08:19.435Z,17.50
2023-11-23T02:09:21.900Z,17.58
2023-11-23T02:10:24.151Z,22.45
2023-11-23T02:11:29.092Z,16.73
2023-11-23T02:12:34.540Z,17.08
2023-11-23T02:13:39.771Z,17.60
2023-11-23T02:14:43.171Z,17.23
2023-11-23T02:15:46.676Z,20.80
2023-11-23T02:16:49.446Z,21.15
2023-11-23T02:18:02.605Z,15.90
2023-11-23T02:19:05.280Z,15.40
2023-11-23T02:20:10.469Z,15.25
2023-11-23T02:21:13.724Z,16.05
2023-11-23T02:22:16.492Z,17.40
2023-11-23T02:23:19.595Z,15.68
2023-11-23T02:24:23.690Z,15.88
2023-11-23T02:25:26.809Z,15.40
2023-11-23T02:26:28.859Z,15.98
2023-11-23T02:27:33.555Z,15.63
2023-11-23T02:28:35.696Z,15.40
2023-11-23T02:29:39.532Z,19.55
2023-11-23T02:30:42.214Z,14.98
2023-11-23T02:31:45.550Z,16.02
2023-11-23T02:32:47.736Z,16.45
2023-11-23T02:33:51.577Z,15.73
2023-11-23T02:34:54.929Z,15.25
2023-11-23T02:35:57.048Z,16.08
2023-11-23T02:37:00.251Z,18.70
2023-11-23T02:38:02.431Z,14.43
2023-11-23T02:39:05.868Z,14.20
2023-11-23T02:40:12.113Z,15.02
2023-11-23T02:41:15.112Z,15.55
2023-11-23T02:42:18.354Z,19.90
2023-11-23T02:43:20.595Z,15.73
2023-11-23T02:44:23.794Z,15.15
2023-11-23T02:45:25.906Z,16.00
2023-11-23T02:48:06.757Z,14.75
2023-11-23T02:49:10.456Z,14.18
2023-11-23T02:50:12.845Z,18.98
2023-11-23T02:51:16.578Z,14.65
2023-11-23T02:52:18.728Z,13.88
2023-11-23T02:53:31.453Z,14.95
2023-11-23T02:54:33.820Z,13.82
2023-11-23T02:55:37.676Z,14.20
2023-11-23T02:56:39.872Z,14.50
2023-11-23T02:57:44.240Z,15.15
2023-11-23T02:58:47.936Z,14.15
2023-11-23T02:59:52.576Z,17.88
2023-11-23T03:00:54.929Z,15.07
2023-11-23T03:01:57.794Z,15.55
2023-11-23T03:03:01.211Z,15.82
2023-11-23T03:04:05.879Z,14.95
2023-11-23T03:05:11.664Z,19.88
2023-11-23T03:06:15.445Z,14.75
2023-11-23T03:07:18.934Z,15.23
2023-11-23T03:08:21.566Z,15.80
2023-11-23T03:09:24.767Z,15.32
2023-11-23T03:10:26.856Z,14.93
2023-11-23T03:11:30.096Z,15.20
2023-11-23T03:12:32.268Z,19.73
2023-11-23T03:13:35.344Z,15.48
2023-11-23T03:14:37.473Z,14.68
2023-11-23T03:15:40.929Z,15.18
2023-11-23T03:16:43.636Z,15.30
2023-11-23T03:17:46.873Z,14.98
2023-11-23T03:18:49.310Z,14.40
2023-11-23T03:19:52.991Z,16.88
2023-11-23T03:20:56.289Z,14.27
2023-11-23T03:21:58.958Z,15.65
2023-11-23T03:23:02.027Z,14.82
2023-11-23T03:24:05.662Z,18.77
2023-11-23T03:25:10.307Z,14.88
2023-11-23T03:26:12.409Z,14.18
2023-11-23T03:27:15.902Z,13.85
2023-11-23T03:28:20.243Z,15.07
2023-11-23T03:29:23.643Z,14.82
2023-11-23T03:30:26.877Z,13.52
2023-11-23T03:31:29.993Z,14.45
2023-11-23T03:32:33.534Z,18.73
2023-11-23T03:33:36.691Z,19.30
2023-11-23T03:34:38.820Z,15.32
2023-11-23T03:35:42.508Z,14.23
2023-11-23T03:36:45.657Z,13.80
2023-11-23T03:37:47.730Z,15.07
2023-11-23T03:38:50.828Z,18.73
2023-11-23T03:39:53.701Z,17.55
2023-11-23T03:40:58.584Z,14.95
2023-11-23T03:42:02.343Z,14.60
2023-11-23T03:43:05.627Z,14.13
2023-11-23T03:44:07.749Z,15.10
2023-11-23T03:45:11.534Z,18.02
2023-11-23T03:46:13.825Z,14.25
2023-11-23T03:47:17.005Z,15.00
2023-11-23T03:48:19.496Z,17.73
2023-11-23T03:49:22.605Z,13.77
2023-11-23T03:50:25.602Z,14.27
2023-11-23T03:51:29.983Z,18.15
2023-11-23T03:52:32.116Z,15.48
2023-11-23T03:53:35.185Z,14.80
2023-11-23T03:54:37.222Z,14.40
2023-11-23T03:55:40.259Z,17.23
2023-11-23T03:56:42.403Z,13.80
2023-11-23T03:57:46.948Z,14.02
2023-11-23T03:58:49.188Z,14.20
2023-11-23T03:59:52.313Z,17.27
2023-11-23T04:00:54.365Z,17.73
2023-11-23T04:01:57.565Z,14.68
2023-11-23T04:03:00.117Z,15.10
2023-11-23T04:04:04.227Z,14.60
2023-11-23T04:05:08.147Z,17.90
2023-11-23T04:06:11.288Z,14.85
2023-11-23T04:07:14.692Z,14.07
2023-11-23T04:08:17.736Z,14.60
2023-11-23T04:09:20.074Z,14.13
2023-11-23T04:10:23.211Z,14.70
2023-11-23T04:11:25.617Z,19.38
2023-11-23T04:12:29.791Z,14.02
2023-11-23T04:13:31.886Z,14.27
2023-11-23T04:14:35.301Z,13.70
2023-11-23T04:15:37.303Z,17.70
2023-11-23T04:16:39.495Z,19.20
2023-11-23T04:17:42.678Z,13.68
2023-11-23T04:18:45.960Z,15.20
2023-11-23T04:19:49.577Z,18.08
2023-11-23T04:20:51.642Z,15.93
2023-11-23T04:21:54.770Z,15.05
2023-11-23T04:22:58.165Z,14.50
2023-11-23T04:24:01.738Z,14.13
2023-11-23T04:25:05.081Z,18.83
2023-11-23T04:26:08.277Z,14.20
2023-11-23T04:27:10.499Z,14.10
2023-11-23T04:28:13.940Z,14.48
2023-11-23T04:29:15.984Z,14.45
2023-11-23T04:30:19.396Z,18.92
2023-11-23T04:31:21.774Z,19.13
2023-11-23T04:32:24.865Z,18.13
2023-11-23T04:33:27.376Z,14.85
2023-11-23T04:34:29.516Z,15.68
2023-11-23T04:35:32.555Z,14.85
2023-11-23T04:36:37.946Z,18.55
2023-11-23T04:37:40.405Z,16.63
2023-11-23T04:38:44.862Z,16.33
2023-11-23T04:39:46.902Z,16.40
2023-11-23T04:40:49.953Z,19.90
2023-11-23T04:41:52.063Z,19.15
2023-11-23T04:42:54.181Z,18.25
2023-11-23T04:43:57.294Z,14.80
2023-11-23T04:44:59.351Z,15.48
2023-11-23T04:46:02.481Z,15.80
2023-11-23T04:47:05.162Z,19.27
2023-11-23T04:48:08.011Z,15.40
2023-11-23T04:49:11.284Z,14.02
2023-11-23T04:50:14.570Z,19.50
2023-11-23T04:51:17.688Z,19.08
2023-11-23T04:52:19.900Z,18.77
2023-11-23T04:53:22.873Z,14.38
2023-11-23T04:54:26.293Z,14.65
2023-11-23T04:55:30.388Z,15.57
2023-11-23T04:56:33.032Z,20.15
2023-11-23T04:57:36.051Z,18.17
2023-11-23T04:58:38.050Z,19.23
2023-11-23T04:59:40.080Z,18.42
2023-11-23T05:00:43.119Z,19.88
2023-11-23T05:01:45.367Z,13.77
2023-11-23T05:02:48.496Z,15.88
2023-11-23T05:03:50.811Z,14.35
2023-11-23T05:04:53.835Z,16.98
2023-11-23T05:05:55.907Z,18.80
2023-11-23T05:06:59.088Z,18.38
2023-11-23T05:08:01.189Z,14.00
2023-11-23T05:09:05.003Z,14.52
2023-11-23T05:10:09.819Z,18.13
2023-11-23T05:11:13.149Z,17.50
2023-11-23T05:12:15.265Z,17.70
2023-11-23T05:13:18.697Z,13.75
2023-11-23T05:14:20.833Z,14.35
2023-11-23T05:15:23.896Z,18.17
2023-11-23T05:16:25.949Z,17.98
2023-11-23T05:17:29.431Z,18.40
2023-11-23T05:18:31.814Z,18.63
2023-11-23T05:19:41.980Z,13.45
2023-11-23T05:20:45.505Z,13.43
2023-11-23T05:21:48.669Z,18.00
2023-11-23T05:22:50.731Z,16.98
2023-11-23T05:23:54.218Z,18.02
2023-11-23T05:24:57.278Z,13.68
2023-11-23T05:26:01.663Z,14.18
2023-11-23T05:27:04.200Z,14.63
2023-11-23T05:28:07.363Z,16.65
2023-11-23T05:29:09.465Z,16.98
2023-11-23T05:30:13.935Z,16.55
2023-11-23T05:31:16.243Z,17.52
2023-11-23T05:32:19.550Z,17.42
2023-11-23T05:33:25.529Z,14.00
2023-11-23T05:34:29.006Z,13.60
2023-11-23T05:35:32.026Z,13.68
2023-11-23T05:36:35.066Z,16.15
2023-11-23T05:37:37.052Z,17.42
2023-11-23T05:38:41.663Z,15.65
2023-11-23T05:39:44.622Z,16.70
2023-11-23T05:40:48.179Z,15.68
2023-11-23T05:41:51.663Z,15.85
2023-11-23T05:43:02.918Z,17.02
2023-11-23T05:44:07.885Z,13.95
2023-11-23T05:45:11.726Z,12.98
2023-11-23T05:46:14.987Z,16.42
2023-11-23T05:47:18.152Z,15.30
2023-11-23T05:48:20.290Z,15.40
2023-11-23T05:49:22.881Z,17.13
2023-11-23T05:50:25.917Z,16.10
2023-11-23T05:51:29.187Z,12.07
2023-11-23T05:52:32.484Z,12.63
2023-11-23T05:53:34.501Z,16.45
2023-11-23T05:54:38.599Z,17.23
2023-11-23T05:55:40.579Z,15.55
2023-11-23T05:56:45.006Z,16.35
2023-11-23T05:57:48.430Z,16.52
2023-11-23T05:58:52.178Z,15.77
2023-11-23T05:59:54.188Z,15.35
2023-11-23T06:01:07.016Z,16.17
2023-11-23T06:02:12.005Z,12.38
2023-11-23T06:03:15.124Z,13.05
2023-11-23T06:04:17.350Z,16.13
2023-11-23T06:05:20.657Z,15.25
2023-11-23T06:06:24.539Z,14.57
2023-11-23T06:07:27.573Z,15.55
2023-11-23T06:08:29.636Z,16.02
2023-11-23T06:09:32.837Z,15.23
2023-11-23T06:10:34.865Z,15.57
2023-11-23T06:11:37.902Z,15.13
2023-11-23T06:12:39.883Z,15.30
2023-11-23T06:13:46.034Z,14.95
2023-11-23T06:14:48.258Z,13.73
2023-11-23T06:15:52.180Z,12.25
2023-11-23T06:16:54.182Z,15.93
2023-11-23T06:18:07.427Z,17.42
2023-11-23T06:19:17.098Z,11.93
2023-11-23T06:20:19.704Z,13.60
2023-11-23T06:21:22.929Z,15.95
2023-11-23T06:22:25.009Z,16.85
2023-11-23T06:23:28.030Z,15.98
2023-11-23T06:24:30.055Z,15.77
2023-11-23T06:25:33.413Z,16.75
2023-11-23T06:26:35.430Z,15.85
2023-11-23T06:27:37.411Z,17.08
2023-11-23T06:28:40.357Z,17.40
2023-11-23T06:29:43.670Z,15.88
2023-11-23T06:30:46.990Z,15.43
2023-11-23T06:31:51.365Z,15.38
2023-11-23T06:32:54.894Z,16.35
2023-11-23T06:33:57.017Z,15.77
2023-11-23T06:35:00.027Z,14.80
2023-11-23T06:36:02.041Z,17.27
2023-11-23T06:37:05.353Z,17.20
2023-11-23T06:38:07.491Z,18.10
2023-11-23T06:39:10.930Z,14.13
2023-11-23T06:40:13.256Z,14.88
2023-11-23T06:41:20.734Z,19.60
2023-11-23T06:42:22.780Z,17.98
2023-11-23T06:43:25.875Z,19.38
2023-11-23T06:44:27.927Z,20.23
2023-11-23T06:45:32.431Z,18.92
2023-11-23T06:46:34.485Z,19.27
2023-11-23T06:47:37.647Z,18.95
2023-11-23T06:48:39.748Z,17.60
2023-11-23T06:49:42.975Z,14.52
2023-11-23T06:50:45.604Z,14.80
2023-11-23T06:51:48.655Z,15.93
2023-11-23T06:52:50.693Z,15.52
2023-11-23T06:53:52.729Z,19.10
2023-11-23T06:54:55.705Z,17.42
2023-11-23T06:56:03.561Z,18.08
2023-11-23T06:57:06.532Z,16.27
2023-11-23T06:58:10.215Z,16.48
2023-11-23T06:59:13.538Z,18.60
2023-11-23T07:00:23.481Z,16.25
2023-11-23T07:01:27.184Z,14.88
2023-11-23T07:02:30.429Z,15.43
2023-11-23T07:03:32.644Z,17.33
2023-11-23T07:04:35.733Z,16.98
2023-11-23T07:05:37.765Z,16.70
2023-11-23T07:06:40.749Z,16.80
2023-11-23T07:07:44.798Z,13.55
2023-11-23T07:08:48.295Z,13.38
2023-11-23T07:09:50.268Z,14.50
2023-11-23T07:10:53.759Z,15.32
2023-11-23T07:11:55.972Z,15.15
2023-11-23T07:12:58.930Z,15.35
2023-11-23T07:14:01.818Z,16.73
2023-11-23T07:15:05.562Z,15.43
2023-11-23T07:16:10.225Z,16.30
2023-11-23T07:17:14.625Z,16.00
2023-11-23T07:18:19.012Z,16.80
2023-11-23T07:19:22.234Z,15.32
2023-11-23T07:20:24.283Z,15.20
2023-11-23T07:21:27.515Z,16.17
2023-11-23T07:22:29.502Z,15.95
2023-11-23T07:23:33.007Z,16.50
2023-11-23T07:24:35.489Z,17.35
2023-11-23T07:25:43.340Z,16.63
2023-11-23T07:26:45.934Z,17.27
2023-11-23T07:27:48.955Z,15.73
2023-11-23T07:28:50.977Z,16.25
2023-11-23T07:29:54.883Z,16.85
2023-11-23T07:30:57.727Z,17.10
2023-11-23T07:32:00.845Z,16.75
2023-11-23T07:33:04.316Z,17.67
2023-11-23T07:34:07.402Z,19.60
2023-11-23T07:35:09.631Z,16.88
2023-11-23T07:36:13.864Z,17.17
2023-11-23T07:37:15.992Z,15.18
2023-11-23T07:38:19.888Z,16.30
2023-11-23T07:39:23.607Z,16.30
2023-11-23T07:40:26.699Z,16.30
2023-11-23T07:41:28.664Z,15.70
2023-11-23T07:42:31.674Z,15.93
2023-11-23T07:43:33.710Z,15.05
2023-11-23T07:44:36.682Z,15.93
2023-11-23T07:45:38.846Z,15.60
2023-11-23T07:46:42.270Z,16.38
2023-11-23T07:47:45.075Z,18.15
2023-11-23T07:48:53.749Z,15.70
2023-11-23T07:49:56.707Z,16.02
2023-11-23T07:50:59.774Z,14.52
2023-11-23T07:52:01.785Z,15.25
2023-11-23T07:53:04.948Z,15.85
2023-11-23T07:54:07.077Z,15.13
2023-11-23T07:55:12.047Z,16.30
2023-11-23T07:56:16.170Z,15.98
2023-11-23T07:57:20.212Z,14.85
2023-11-23T07:58:22.310Z,15.55
2023-11-23T07:59:25.353Z,15.57
2023-11-23T08:00:27.663Z,17.25
2023-11-23T08:01:30.746Z,16.38
2023-11-23T08:02:32.757Z,15.63
2023-11-23T08:03:35.893Z,17.80
2023-11-23T08:04:39.428Z,15.50
2023-11-23T08:05:43.356Z,15.35
2023-11-23T08:06:45.343Z,20.10
2023-11-23T08:07:47.985Z,16.63
2023-11-23T08:08:51.121Z,15.10
2023-11-23T08:09:53.114Z,16.27
2023-11-23T08:10:55.226Z,14.75
2023-11-23T08:11:58.590Z,15.07
2023-11-23T08:13:00.732Z,15.07
2023-11-23T08:14:03.988Z,15.43
2023-11-23T08:15:08.334Z,15.30
2023-11-23T08:16:10.318Z,15.05
2023-11-23T08:17:14.255Z,14.77
2023-11-23T08:18:16.398Z,14.88
2023-11-23T08:19:19.726Z,15.23
2023-11-23T08:20:25.138Z,15.57
2023-11-23T08:21:28.200Z,15.38
2023-11-23T08:22:30.218Z,16.52
2023-11-23T08:23:33.216Z,15.15
2023-11-23T08:24:35.355Z,16.88
2023-11-23T08:25:38.865Z,15.57
2023-11-23T08:26:40.904Z,15.82
2023-11-23T08:27:43.932Z,15.80
2023-11-23T08:28:45.935Z,15.68
2023-11-23T08:29:48.884Z,16.17
2023-11-23T08:30:50.927Z,16.17
2023-11-23T08:31:53.899Z,16.42
2023-11-23T08:32:57.145Z,15.65
2023-11-23T08:34:00.388Z,16.92
2023-11-23T08:35:04.143Z,15.25
2023-11-23T08:36:09.329Z,16.38
2023-11-23T08:37:11.425Z,16.45
2023-11-23T08:38:14.697Z,16.90
2023-11-23T08:39:16.684Z,16.02
2023-11-23T08:40:27.058Z,15.90
2023-11-23T08:41:34.738Z,15.60
2023-11-23T08:42:40.526Z,16.80
2023-11-23T08:43:42.584Z,17.08
2023-11-23T08:44:49.537Z,16.13
2023-11-23T08:45:55.897Z,16.17
2023-11-23T08:47:03.022Z,16.27
2023-11-23T08:48:07.738Z,16.15
2023-11-23T08:49:12.082Z,15.63
2023-11-23T08:50:15.615Z,16.70
2023-11-23T08:51:22.311Z,16.88
2023-11-23T08:52:42.038Z,16.33
2023-11-23T08:53:45.047Z,15.75
2023-11-23T08:54:47.078Z,16.48
2023-11-23T08:55:51.327Z,16.38
2023-11-23T08:56:54.437Z,15.40
2023-11-23T08:57:57.529Z,16.80
2023-11-23T08:58:59.661Z,16.45
2023-11-23T09:00:04.252Z,15.88
2023-11-23T09:01:11.756Z,16.65
2023-11-23T09:02:20.975Z,17.83
2023-11-23T09:03:27.928Z,16.73
2023-11-23T09:04:43.147Z,17.15
2023-11-23T09:05:47.959Z,17.30
2023-11-23T09:06:52.404Z,16.80
2023-11-23T09:07:54.840Z,16.15
2023-11-23T09:09:01.430Z,17.00
2023-11-23T09:10:03.939Z,17.30
2023-11-23T09:11:07.442Z,17.83
2023-11-23T09:12:09.804Z,17.02
2023-11-23T09:13:13.080Z,15.55
2023-11-23T09:14:15.404Z,16.48
2023-11-23T09:15:24.393Z,15.50
2023-11-23T09:16:27.448Z,15.25
2023-11-23T09:17:36.691Z,16.40
2023-11-23T09:18:44.668Z,17.35
2023-11-23T09:19:51.095Z,18.73
2023-11-23T09:20:53.174Z,16.63
2023-11-23T09:21:59.450Z,19.83
2023-11-23T09:23:09.327Z,16.13
2023-11-23T09:24:16.506Z,17.65
2023-11-23T09:25:21.726Z,16.13
2023-11-23T09:26:24.823Z,17.80
2023-11-23T09:27:26.864Z,17.02
2023-11-23T09:28:30.745Z,16.90
2023-11-23T09:29:32.886Z,16.85
2023-11-23T09:30:35.987Z,21.05
2023-11-23T09:31:38.516Z,15.38
2023-11-23T09:32:41.846Z,17.30
2023-11-23T09:33:43.895Z,16.55
2023-11-23T09:34:46.902Z,17.27
2023-11-23T09:35:49.048Z,15.43
2023-11-23T09:36:52.036Z,19.20
2023-11-23T09:37:55.469Z,17.02
2023-11-23T09:39:01.530Z,16.38
2023-11-23T09:40:06.289Z,15.57
2023-11-23T09:41:12.346Z,16.15
2023-11-23T09:42:17.688Z,16.15
2023-11-23T09:43:21.718Z,15.55
2023-11-23T09:44:24.698Z,15.75
2023-11-23T09:45:27.895Z,16.70
2023-11-23T09:46:30.561Z,15.77
2023-11-23T09:47:33.104Z,15.65
2023-11-23T09:48:39.386Z,19.02
2023-11-23T09:49:42.288Z,16.40
2023-11-23T09:50:45.344Z,15.93
2023-11-23T09:51:49.063Z,17.38
2023-11-23T09:52:53.513Z,18.15
2023-11-23T09:54:00.136Z,14.55
2023-11-23T09:55:08.425Z,20.05
2023-11-23T09:56:10.706Z,17.58
2023-11-23T09:57:13.950Z,15.52
2023-11-23T09:58:15.956Z,15.45
2023-11-23T09:59:18.993Z,16.10
2023-11-23T10:00:22.467Z,14.88
2023-11-23T10:01:27.918Z,15.43
2023-11-23T10:02:33.763Z,14.38
2023-11-23T10:03:37.654Z,15.80
2023-11-23T10:04:39.758Z,15.70
2023-11-23T10:05:44.695Z,16.55
2023-11-23T10:06:46.632Z,15.45
2023-11-23T10:07:50.982Z,13.82
2023-11-23T10:08:52.930Z,14.73
2023-11-23T10:09:57.330Z,15.10
2023-11-23T10:10:59.916Z,14.90
2023-11-23T10:12:03.696Z,14.68
2023-11-23T10:13:06.996Z,14.48
2023-11-23T10:14:10.069Z,15.10
2023-11-23T10:15:12.862Z,15.02
2023-11-23T10:16:16.098Z,14.65
2023-11-23T10:17:18.613Z,14.88
2023-11-23T10:18:21.758Z,14.57
2023-11-23T10:19:24.178Z,13.13
2023-11-23T10:20:27.724Z,15.45
2023-11-23T10:21:29.817Z,13.57
2023-11-23T10:22:32.976Z,13.27
2023-11-23T10:23:34.953Z,13.20
2023-11-23T10:24:50.575Z,13.57
2023-11-23T10:25:56.796Z,13.95
2023-11-23T10:27:00.797Z,14.95
2023-11-23T10:28:04.943Z,14.23
2023-11-23T10:29:10.831Z,15.48
2023-11-23T10:30:14.219Z,13.38
2023-11-23T10:31:26.355Z,15.63
2023-11-23T10:32:32.100Z,14.48
2023-11-23T10:33:36.564Z,14.02
2023-11-23T10:34:41.387Z,13.20
2023-11-23T10:35:51.211Z,14.05
2023-11-23T10:36:53.679Z,13.07
2023-11-23T10:37:56.818Z,15.13
2023-11-23T10:39:01.025Z,13.98
2023-11-23T10:40:05.742Z,13.23
2023-11-23T10:41:21.172Z,13.68
2023-11-23T10:42:24.280Z,14.30
2023-11-23T10:43:27.341Z,13.75
2023-11-23T10:44:31.091Z,13.43
2023-11-23T10:45:35.578Z,13.32
2023-11-23T10:46:40.617Z,13.88
2023-11-23T10:47:43.626Z,13.20
2023-11-23T10:48:47.864Z,14.60
2023-11-23T10:49:50.818Z,13.13
2023-11-23T10:50:57.888Z,12.18
2023-11-23T10:52:01.247Z,13.15
2023-11-23T10:53:05.110Z,13.77
2023-11-23T10:54:07.172Z,13.43
2023-11-23T10:55:11.474Z,13.50
2023-11-23T10:56:18.237Z,13.63
2023-11-23T10:57:22.596Z,13.27
2023-11-23T10:58:25.315Z,12.88
2023-11-23T10:59:29.121Z,13.63
2023-11-23T11:00:31.275Z,12.63
2023-11-23T11:01:34.273Z,12.98
2023-11-23T11:02:37.426Z,12.95
2023-11-23T11:03:40.363Z,13.02
2023-11-23T11:04:43.482Z,13.82
2023-11-23T11:05:49.752Z,14.70
2023-11-23T11:06:55.374Z,13.82
2023-11-23T11:08:01.733Z,12.45
2023-11-23T11:09:14.940Z,13.40
2023-11-23T11:10:16.940Z,13.23
2023-11-23T11:11:22.969Z,11.98
2023-11-23T11:12:25.052Z,12.13
2023-11-23T11:13:28.609Z,12.95
2023-11-23T11:14:34.716Z,13.90
2023-11-23T11:15:39.228Z,14.15
2023-11-23T11:16:41.709Z,13.13
2023-11-23T11:17:47.125Z,12.85
2023-11-23T11:18:53.589Z,13.02
2023-11-23T11:19:56.466Z,14.55
2023-11-23T11:21:09.282Z,12.68
2023-11-23T11:22:13.388Z,14.13
2023-11-23T11:23:16.367Z,13.57
2023-11-23T11:24:19.926Z,11.90
2023-11-23T11:25:23.788Z,12.75
2023-11-23T11:26:28.885Z,13.10
2023-11-23T11:27:32.127Z,12.77
2023-11-23T11:28:34.556Z,12.90
2023-11-23T11:29:37.609Z,14.75
2023-11-23T11:30:39.816Z,14.25
2023-11-23T11:31:43.927Z,12.18
2023-11-23T11:32:47.073Z,12.00
2023-11-23T11:33:53.920Z,13.27
2023-11-23T11:35:00.713Z,12.98
2023-11-23T11:36:03.815Z,12.32
2023-11-23T11:37:08.104Z,13.00
2023-11-23T11:38:15.062Z,12.65
2023-11-23T11:39:17.375Z,14.82
2023-11-23T11:40:21.037Z,12.32
2023-11-23T11:41:23.842Z,12.88
2023-11-23T11:42:30.890Z,12.23
2023-11-23T11:43:34.094Z,12.02
2023-11-23T11:44:37.419Z,11.07
2023-11-23T11:45:39.467Z,12.30
2023-11-23T11:46:42.671Z,11.80
2023-11-23T11:47:44.764Z,11.77
2023-11-23T11:48:47.258Z,13.35
2023-11-23T11:49:51.021Z,11.57
2023-11-23T11:50:57.048Z,12.07
2023-11-23T11:52:01.124Z,13.52
2023-11-23T11:53:03.720Z,11.73
2023-11-23T11:54:08.162Z,10.82
2023-11-23T11:55:10.285Z,11.60
2023-11-23T11:56:14.227Z,10.70
2023-11-23T11:57:19.335Z,11.68
2023-11-23T11:58:22.806Z,11.88
2023-11-23T11:59:29.571Z,11.57
2023-11-23T12:00:35.791Z,11.63
2023-11-23T12:01:38.896Z,9.30
2023-11-23T12:02:41.572Z,11.13
2023-11-23T12:03:45.470Z,11.75
2023-11-23T12:04:57.881Z,11.82
2023-11-23T12:06:00.870Z,10.90
2023-11-23T12:07:15.551Z,12.50
2023-11-23T12:08:18.540Z,14.02
2023-11-23T12:09:31.120Z,10.85
2023-11-23T12:10:42.255Z,11.25
2023-11-23T12:11:44.973Z,10.60
2023-11-23T12:12:48.763Z,10.77
2023-11-23T12:13:54.769Z,11.70
2023-11-23T12:14:58.319Z,11.27
2023-11-23T12:16:00.446Z,11.27
2023-11-23T12:17:09.467Z,10.60
2023-11-23T12:18:14.381Z,10.23
2023-11-23T12:19:18.718Z,11.20
2023-11-23T12:20:21.217Z,11.35
2023-11-23T12:21:24.281Z,11.55
2023-11-23T12:22:27.189Z,11.10
2023-11-23T12:23:30.822Z,10.48
2023-11-23T12:24:33.309Z,11.38
2023-11-23T12:25:36.982Z,9.98
2023-11-23T12:26:39.856Z,10.20
2023-11-23T12:27:43.552Z,9.63
2023-11-23T12:28:47.729Z,10.80
2023-11-23T12:29:53.278Z,11.27
2023-11-23T12:30:55.632Z,11.98
2023-11-23T12:32:00.442Z,11.23
2023-11-23T12:33:03.521Z,11.23
2023-11-23T12:34:05.605Z,13.10
2023-11-23T12:35:10.274Z,13.15
2023-11-23T12:36:13.610Z,11.57
2023-11-23T12:37:16.802Z,11.82
2023-11-23T12:38:18.748Z,10.65
2023-11-23T12:39:21.153Z,10.85
2023-11-23T12:40:26.901Z,10.43
2023-11-23T12:41:31.152Z,10.60
2023-11-23T12:42:37.845Z,10.05
2023-11-23T12:43:39.822Z,13.50
2023-11-23T12:44:42.794Z,12.18
2023-11-23T12:45:46.341Z,11.45
2023-11-23T12:46:50.144Z,9.70
2023-11-23T12:47:52.904Z,10.30
2023-11-23T12:48:55.979Z,12.82
2023-11-23T12:49:58.052Z,12.25
2023-11-23T12:51:01.677Z,10.90
2023-11-23T12:52:04.165Z,10.13
2023-11-23T12:53:07.488Z,10.50
2023-11-23T12:54:09.492Z,10.25
2023-11-23T12:55:11.626Z,9.65
2023-11-23T12:56:15.652Z,10.45
2023-11-23T12:57:17.948Z,10.20
2023-11-23T12:58:23.375Z,11.05
2023-11-23T12:59:26.398Z,10.25
2023-11-23T13:02:09.643Z,10.00
2023-11-23T13:03:12.215Z,10.73
2023-11-23T13:04:20.284Z,9.90
2023-11-23T13:05:23.281Z,11.45
2023-11-23T13:06:28.948Z,9.77
2023-11-23T13:07:31.076Z,10.68
2023-11-23T13:08:35.558Z,10.50
2023-11-23T13:09:37.690Z,9.38
2023-11-23T13:10:41.998Z,11.02
2023-11-23T13:11:43.934Z,9.80
2023-11-23T13:12:47.277Z,10.48
2023-11-23T13:13:49.650Z,9.73
2023-11-23T13:14:52.626Z,9.68
2023-11-23T13:15:54.753Z,10.48
2023-11-23T13:16:57.947Z,9.18
2023-11-23T13:18:01.503Z,10.55
2023-11-23T13:19:16.949Z,10.15
2023-11-23T13:20:28.743Z,12.20
2023-11-23T13:21:31.805Z,9.30
2023-11-23T13:22:33.832Z,10.20
2023-11-23T13:23:38.579Z,9.05
2023-11-23T13:24:40.713Z,10.15
2023-11-23T13:25:46.026Z,9.25
2023-11-23T13:26:49.443Z,9.05
2023-11-23T13:27:57.172Z,8.90
2023-11-23T13:28:59.311Z,10.35
2023-11-23T13:30:02.689Z,9.40
2023-11-23T13:31:05.901Z,9.25
2023-11-23T13:32:11.582Z,14.63
2023-11-23T13:33:21.596Z,9.57
2023-11-23T13:34:24.727Z,9.38
2023-11-23T13:35:28.220Z,10.45
2023-11-23T13:36:35.630Z,9.70
2023-11-23T13:37:37.944Z,9.93
2023-11-23T13:38:41.195Z,9.20
2023-11-23T13:39:43.315Z,9.52
2023-11-23T13:40:48.992Z,10.93
2023-11-23T13:41:52.129Z,9.30
2023-11-23T13:42:54.658Z,8.80
2023-11-23T13:43:57.630Z,9.05
2023-11-23T13:44:59.704Z,9.10